Hai Hua — XUDB9 — position and weather

sailwx.info

Track history (hours):
 
Tides and Currents Weather Stations Pressure Air Temp Water Temp Dewpoint Dewpoint Depression Visibility Wind Speed Wind Dir Waves Ship Positions

Hai Hua

Last reported at 2015-May-28 16:28 UTC. Time now 2015-May-29 20:18 UTC.
Position N 37°48' E 121°52'.

Length 69 m; draft 4.9 m.

Type: Cargo ship. MMSI: 515171000.

Date/timePositionNaut miles runAvg speedWind from/ knotsBaromVisibWave heightAir tempDewpointWater temp
2015-May-28 16:28N 37°48' E 121°52'1010.6
2015-May-28 15:33N 37°51' E 121°40'1110.8
2015-May-28 14:33N 37°53' E 121°27'179 9.9
2015-May-27 20:31N 38°57' E 117°54'6 6.1
2015-May-27 19:31N 38°58' E 117°46'0 0.0
2015-May-27 18:31N 38°58' E 117°46'0 0.0
2015-May-27 17:31N 38°58' E 117°46'0 0.0
2015-May-27 16:31N 38°58' E 117°46'0 0.0
2015-May-27 15:31N 38°58' E 117°46'0 0.0
2015-May-27 14:31N 38°58' E 117°46'7 7.0
2015-May-27 13:33N 38°57' E 117°55'4 0.3
2015-May-27 02:12N 38°58' E 117°60'0 0.0
2015-May-24 22:30N 38°58' E 117°60'0 0.0
2015-May-24 21:33N 38°58' E 117°60'0 0.0
2015-May-24 20:33N 38°58' E 117°60'8 7.0
2015-May-24 19:29N 38°55' E 118°09'1410.8
2015-May-24 18:10N 38°47' E 118°24'1010.5
2015-May-24 17:12N 38°43' E 118°36'5710.0
2015-May-24 11:31N 38°22' E 119°43'1212.1
2015-May-24 10:33N 38°17' E 119°56'1312.5
2015-May-24 09:33N 38°11' E 120°11'1212.5
2015-May-24 08:33N 38°05' E 120°25'1412.8
2015-May-24 07:28N 38°02' E 120°42'1312.7
2015-May-24 06:28N 37°59' E 120°58'1011.5
2015-May-24 05:33N 37°55' E 121°10'1111.2
2015-May-24 04:33N 37°45' E 121°16'8 7.6
2015-May-24 03:33N 37°37' E 121°13'3 3.4
2015-May-24 02:33N 37°38' E 121°08'0 0.0
2015-May-24 01:33N 37°38' E 121°08'0 0.0
2015-May-24 00:33N 37°38' E 121°08'0 0.0
2015-May-23 23:33N 37°38' E 121°08'0 0.0
2015-May-23 22:33N 37°38' E 121°08'0 0.0
2015-May-23 21:33N 37°38' E 121°08'0 0.0
2015-May-23 20:33N 37°38' E 121°08'0 0.0
2015-May-23 19:33N 37°38' E 121°08'0 0.0
2015-May-23 18:33N 37°38' E 121°08'0 0.0
2015-May-23 17:33N 37°38' E 121°08'0 0.0
2015-May-23 16:33N 37°38' E 121°08'0 0.0
2015-May-23 15:33N 37°38' E 121°08'0 0.0
2015-May-23 14:33N 37°38' E 121°08'0 0.0
2015-May-23 13:27N 37°38' E 121°08'0 0.0
2015-May-23 12:33N 37°38' E 121°08'0 0.0
2015-May-23 11:33N 37°38' E 121°08'0 0.0
2015-May-23 10:21N 37°38' E 121°08'0 0.0
2015-May-23 09:27N 37°38' E 121°08'0 0.0
2015-May-23 08:33N 37°38' E 121°08'0 0.0
2015-May-23 07:33N 37°38' E 121°08'0 0.0
2015-May-23 06:27N 37°38' E 121°08'0 0.0
2015-May-23 05:15N 37°38' E 121°08'0 0.0
2015-May-23 04:33N 37°38' E 121°08'0 0.5
2015-May-23 03:33N 37°37' E 121°09'9 8.8
2015-May-23 02:33N 37°40' E 121°20'8 7.8
2015-May-23 01:34N 37°38' E 121°29'1 1.2
2015-May-23 00:30N 37°39' E 121°30'0 0.0
2015-May-22 23:24N 37°39' E 121°30'0 0.0
2015-May-22 22:30N 37°39' E 121°30'0 0.0
2015-May-22 21:30N 37°39' E 121°30'0 0.0
2015-May-22 20:30N 37°39' E 121°30'0 0.0
2015-May-22 19:30N 37°39' E 121°30'0 0.0
2015-May-22 18:27N 37°39' E 121°30'0 0.0
2015-May-22 17:27N 37°39' E 121°30'0 0.0
2015-May-22 16:30N 37°39' E 121°30'0 0.0
2015-May-22 15:30N 37°39' E 121°30'0 0.0
2015-May-22 14:30N 37°39' E 121°30'0 0.0
2015-May-22 13:30N 37°39' E 121°30'0 0.0
2015-May-22 12:33N 37°39' E 121°30'0 0.0
2015-May-22 11:33N 37°39' E 121°30'0 0.0
2015-May-22 10:30N 37°39' E 121°30'0 0.0
2015-May-22 09:33N 37°39' E 121°30'0 0.0
2015-May-22 08:33N 37°39' E 121°30'0 0.0
2015-May-22 07:30N 37°39' E 121°30'0 0.0
2015-May-22 06:30N 37°39' E 121°30'0 0.0
2015-May-22 05:30N 37°39' E 121°30'0 0.1
2015-May-22 04:30N 37°39' E 121°30'0 0.0
2015-May-22 03:30N 37°39' E 121°30'0 0.0
2015-May-22 02:30N 37°39' E 121°30'0 0.0
2015-May-22 01:30N 37°39' E 121°30'0 0.0
2015-May-22 00:30N 37°39' E 121°30'0 0.0
2015-May-21 23:30N 37°39' E 121°30'0 0.0
2015-May-21 22:30N 37°39' E 121°30'0 0.0
2015-May-21 21:30N 37°39' E 121°30'0 0.0
2015-May-21 20:24N 37°39' E 121°30'0 0.0
2015-May-21 19:30N 37°39' E 121°30'0 0.0
2015-May-21 18:30N 37°39' E 121°30'0 0.0
2015-May-21 17:33N 37°39' E 121°30'0 0.0
2015-May-21 16:30N 37°39' E 121°30'0 0.0
2015-May-21 15:30N 37°39' E 121°30'0 0.0
2015-May-21 14:30N 37°39' E 121°30'0 0.0
2015-May-21 13:30N 37°39' E 121°30'0 0.0
2015-May-21 12:30N 37°39' E 121°30'0 0.0
2015-May-21 11:33N 37°39' E 121°30'0 0.0
2015-May-21 10:18N 37°39' E 121°30'0 0.0
2015-May-21 09:30N 37°39' E 121°30'0 0.0
2015-May-21 08:30N 37°39' E 121°30'0 0.0
2015-May-21 07:30N 37°39' E 121°30'0 0.0
2015-May-21 06:30N 37°39' E 121°30'0 0.0
2015-May-21 05:30N 37°39' E 121°30'0 0.0
2015-May-21 04:30N 37°39' E 121°30'0 0.0
2015-May-21 03:24N 37°39' E 121°30'0 0.1
2015-May-21 02:30N 37°39' E 121°30'0 0.0
2015-May-21 01:30N 37°39' E 121°30'0 0.0
2015-May-21 00:30N 37°39' E 121°30'0 0.0
2015-May-20 23:30N 37°39' E 121°30'0 0.0
2015-May-20 22:30N 37°39' E 121°30'0 0.0
2015-May-20 21:24N 37°39' E 121°30'0 0.0
2015-May-20 20:30N 37°39' E 121°30'0 0.0
2015-May-20 19:30N 37°39' E 121°30'0 0.0
2015-May-20 18:30N 37°39' E 121°30'0 0.0
2015-May-20 17:30N 37°39' E 121°30'0 0.0
2015-May-20 16:30N 37°39' E 121°30'0 0.0
2015-May-20 15:30N 37°39' E 121°30'0 0.0
2015-May-20 14:30N 37°39' E 121°30'0 0.0
2015-May-20 13:24N 37°39' E 121°30'0 0.0
2015-May-20 12:30N 37°39' E 121°30'0 0.0
2015-May-20 11:30N 37°39' E 121°30'0 0.0
2015-May-20 10:30N 37°39' E 121°30'0 0.0
2015-May-20 09:12N 37°39' E 121°30'0 0.0
2015-May-20 08:30N 37°39' E 121°30'0 0.0
2015-May-20 07:24N 37°39' E 121°30'0 0.1
2015-May-20 06:30N 37°39' E 121°30'0 0.0
2015-May-20 05:30N 37°39' E 121°30'0 0.0
2015-May-20 04:30N 37°39' E 121°30'0 0.0
2015-May-20 03:30N 37°39' E 121°30'0 0.0
2015-May-20 02:30N 37°39' E 121°30'0 0.0
2015-May-20 01:30N 37°39' E 121°30'0 0.0
2015-May-20 00:30N 37°39' E 121°30'0 0.0
2015-May-19 23:30N 37°39' E 121°30'0 0.0
2015-May-19 22:30N 37°39' E 121°30'0 0.0
2015-May-19 21:30N 37°39' E 121°30'0 0.0
2015-May-19 20:12N 37°39' E 121°30'0 0.0
2015-May-19 19:30N 37°39' E 121°30'0 0.0
2015-May-19 18:30N 37°39' E 121°30'0 0.0
2015-May-19 17:18N 37°39' E 121°30'0 0.0
2015-May-19 16:30N 37°39' E 121°30'0 0.0
2015-May-19 15:30N 37°39' E 121°30'0 0.0
2015-May-19 14:24N 37°39' E 121°30'0 0.0
2015-May-19 13:30N 37°39' E 121°30'0 0.0
2015-May-19 12:18N 37°39' E 121°30'0 0.0
2015-May-19 11:18N 37°39' E 121°30'0 0.0
2015-May-19 10:30N 37°39' E 121°30'0 0.0
2015-May-19 09:30N 37°39' E 121°30'0 0.0
2015-May-19 08:33N 37°39' E 121°30'0 0.0
2015-May-19 07:30N 37°39' E 121°30'6 6.1
2015-May-19 06:33N 37°40' E 121°38'10 9.3
2015-May-19 05:31N 37°39' E 121°50'10 9.3
2015-May-19 04:27N 37°39' E 122°02'8 9.0
2015-May-19 03:33N 37°38' E 122°12'9 8.9
2015-May-19 02:33N 37°38' E 122°24'9 9.3
2015-May-19 01:33N 37°38' E 122°35'10 9.8
2015-May-19 00:33N 37°39' E 122°48'43 9.7
2015-May-18 20:07N 37°07' E 123°24'9 9.6
2015-May-18 19:07N 36°58' E 123°29'5 9.3
2015-May-18 18:33N 36°53' E 123°32'  
Track history (hours):
 
Tides and Currents Weather Stations Pressure Air Temp Water Temp Dewpoint Dewpoint Depression Visibility Wind Speed Wind Dir Waves Ship Positions

Hai Hua

Last reported at 2015-May-28 16:28 UTC. Time now 2015-May-29 20:18 UTC.
Position N 37°48' E 121°52'.

Length 69 m; draft 4.9 m.

Type: Cargo ship. MMSI: 515171000.

Date/timePositionNaut miles runAvg speedWind from/ knotsBaromVisibWave heightAir tempDewpointWater temp
2015-May-28 16:28N 37°48' E 121°52'1010.6
2015-May-28 15:33N 37°51' E 121°40'1110.8
2015-May-28 14:33N 37°53' E 121°27'179 9.9
2015-May-27 20:31N 38°57' E 117°54'6 6.1
2015-May-27 19:31N 38°58' E 117°46'0 0.0
2015-May-27 18:31N 38°58' E 117°46'0 0.0
2015-May-27 17:31N 38°58' E 117°46'0 0.0
2015-May-27 16:31N 38°58' E 117°46'0 0.0
2015-May-27 15:31N 38°58' E 117°46'0 0.0
2015-May-27 14:31N 38°58' E 117°46'7 7.0
2015-May-27 13:33N 38°57' E 117°55'4 0.3
2015-May-27 02:12N 38°58' E 117°60'0 0.0
2015-May-24 22:30N 38°58' E 117°60'0 0.0
2015-May-24 21:33N 38°58' E 117°60'0 0.0
2015-May-24 20:33N 38°58' E 117°60'8 7.0
2015-May-24 19:29N 38°55' E 118°09'1410.8
2015-May-24 18:10N 38°47' E 118°24'1010.5
2015-May-24 17:12N 38°43' E 118°36'5710.0
2015-May-24 11:31N 38°22' E 119°43'1212.1
2015-May-24 10:33N 38°17' E 119°56'1312.5
2015-May-24 09:33N 38°11' E 120°11'1212.5
2015-May-24 08:33N 38°05' E 120°25'1412.8
2015-May-24 07:28N 38°02' E 120°42'1312.7
2015-May-24 06:28N 37°59' E 120°58'1011.5
2015-May-24 05:33N 37°55' E 121°10'1111.2
2015-May-24 04:33N 37°45' E 121°16'8 7.6
2015-May-24 03:33N 37°37' E 121°13'3 3.4
2015-May-24 02:33N 37°38' E 121°08'0 0.0
2015-May-24 01:33N 37°38' E 121°08'0 0.0
2015-May-24 00:33N 37°38' E 121°08'0 0.0
2015-May-23 23:33N 37°38' E 121°08'0 0.0
2015-May-23 22:33N 37°38' E 121°08'0 0.0
2015-May-23 21:33N 37°38' E 121°08'0 0.0
2015-May-23 20:33N 37°38' E 121°08'0 0.0
2015-May-23 19:33N 37°38' E 121°08'0 0.0
2015-May-23 18:33N 37°38' E 121°08'0 0.0
2015-May-23 17:33N 37°38' E 121°08'0 0.0
2015-May-23 16:33N 37°38' E 121°08'0 0.0
2015-May-23 15:33N 37°38' E 121°08'0 0.0
2015-May-23 14:33N 37°38' E 121°08'0 0.0
2015-May-23 13:27N 37°38' E 121°08'0 0.0
2015-May-23 12:33N 37°38' E 121°08'0 0.0
2015-May-23 11:33N 37°38' E 121°08'0 0.0
2015-May-23 10:21N 37°38' E 121°08'0 0.0
2015-May-23 09:27N 37°38' E 121°08'0 0.0
2015-May-23 08:33N 37°38' E 121°08'0 0.0
2015-May-23 07:33N 37°38' E 121°08'0 0.0
2015-May-23 06:27N 37°38' E 121°08'0 0.0
2015-May-23 05:15N 37°38' E 121°08'0 0.0
2015-May-23 04:33N 37°38' E 121°08'0 0.5
2015-May-23 03:33N 37°37' E 121°09'9 8.8
2015-May-23 02:33N 37°40' E 121°20'8 7.8
2015-May-23 01:34N 37°38' E 121°29'1 1.2
2015-May-23 00:30N 37°39' E 121°30'0 0.0
2015-May-22 23:24N 37°39' E 121°30'0 0.0
2015-May-22 22:30N 37°39' E 121°30'0 0.0
2015-May-22 21:30N 37°39' E 121°30'0 0.0
2015-May-22 20:30N 37°39' E 121°30'0 0.0
2015-May-22 19:30N 37°39' E 121°30'0 0.0
2015-May-22 18:27N 37°39' E 121°30'0 0.0
2015-May-22 17:27N 37°39' E 121°30'0 0.0
2015-May-22 16:30N 37°39' E 121°30'0 0.0
2015-May-22 15:30N 37°39' E 121°30'0 0.0
2015-May-22 14:30N 37°39' E 121°30'0 0.0
2015-May-22 13:30N 37°39' E 121°30'0 0.0
2015-May-22 12:33N 37°39' E 121°30'0 0.0
2015-May-22 11:33N 37°39' E 121°30'0 0.0
2015-May-22 10:30N 37°39' E 121°30'0 0.0
2015-May-22 09:33N 37°39' E 121°30'0 0.0
2015-May-22 08:33N 37°39' E 121°30'0 0.0
2015-May-22 07:30N 37°39' E 121°30'0 0.0
2015-May-22 06:30N 37°39' E 121°30'0 0.0
2015-May-22 05:30N 37°39' E 121°30'0 0.1
2015-May-22 04:30N 37°39' E 121°30'0 0.0
2015-May-22 03:30N 37°39' E 121°30'0 0.0
2015-May-22 02:30N 37°39' E 121°30'0 0.0
2015-May-22 01:30N 37°39' E 121°30'0 0.0
2015-May-22 00:30N 37°39' E 121°30'0 0.0
2015-May-21 23:30N 37°39' E 121°30'0 0.0
2015-May-21 22:30N 37°39' E 121°30'0 0.0
2015-May-21 21:30N 37°39' E 121°30'0 0.0
2015-May-21 20:24N 37°39' E 121°30'0 0.0
2015-May-21 19:30N 37°39' E 121°30'0 0.0
2015-May-21 18:30N 37°39' E 121°30'0 0.0
2015-May-21 17:33N 37°39' E 121°30'0 0.0
2015-May-21 16:30N 37°39' E 121°30'0 0.0
2015-May-21 15:30N 37°39' E 121°30'0 0.0
2015-May-21 14:30N 37°39' E 121°30'0 0.0
2015-May-21 13:30N 37°39' E 121°30'0 0.0
2015-May-21 12:30N 37°39' E 121°30'0 0.0
2015-May-21 11:33N 37°39' E 121°30'0 0.0
2015-May-21 10:18N 37°39' E 121°30'0 0.0
2015-May-21 09:30N 37°39' E 121°30'0 0.0
2015-May-21 08:30N 37°39' E 121°30'0 0.0
2015-May-21 07:30N 37°39' E 121°30'0 0.0
2015-May-21 06:30N 37°39' E 121°30'0 0.0
2015-May-21 05:30N 37°39' E 121°30'0 0.0
2015-May-21 04:30N 37°39' E 121°30'0 0.0
2015-May-21 03:24N 37°39' E 121°30'0 0.1
2015-May-21 02:30N 37°39' E 121°30'0 0.0
2015-May-21 01:30N 37°39' E 121°30'0 0.0
2015-May-21 00:30N 37°39' E 121°30'0 0.0
2015-May-20 23:30N 37°39' E 121°30'0 0.0
2015-May-20 22:30N 37°39' E 121°30'0 0.0
2015-May-20 21:24N 37°39' E 121°30'0 0.0
2015-May-20 20:30N 37°39' E 121°30'0 0.0
2015-May-20 19:30N 37°39' E 121°30'0 0.0
2015-May-20 18:30N 37°39' E 121°30'0 0.0
2015-May-20 17:30N 37°39' E 121°30'0 0.0
2015-May-20 16:30N 37°39' E 121°30'0 0.0
2015-May-20 15:30N 37°39' E 121°30'0 0.0
2015-May-20 14:30N 37°39' E 121°30'0 0.0
2015-May-20 13:24N 37°39' E 121°30'0 0.0
2015-May-20 12:30N 37°39' E 121°30'0 0.0
2015-May-20 11:30N 37°39' E 121°30'0 0.0
2015-May-20 10:30N 37°39' E 121°30'0 0.0
2015-May-20 09:12N 37°39' E 121°30'0 0.0
2015-May-20 08:30N 37°39' E 121°30'0 0.0
2015-May-20 07:24N 37°39' E 121°30'0 0.1
2015-May-20 06:30N 37°39' E 121°30'0 0.0
2015-May-20 05:30N 37°39' E 121°30'0 0.0
2015-May-20 04:30N 37°39' E 121°30'0 0.0
2015-May-20 03:30N 37°39' E 121°30'0 0.0
2015-May-20 02:30N 37°39' E 121°30'0 0.0
2015-May-20 01:30N 37°39' E 121°30'0 0.0
2015-May-20 00:30N 37°39' E 121°30'0 0.0
2015-May-19 23:30N 37°39' E 121°30'0 0.0
2015-May-19 22:30N 37°39' E 121°30'0 0.0
2015-May-19 21:30N 37°39' E 121°30'0 0.0
2015-May-19 20:12N 37°39' E 121°30'0 0.0
2015-May-19 19:30N 37°39' E 121°30'0 0.0
2015-May-19 18:30N 37°39' E 121°30'0 0.0
2015-May-19 17:18N 37°39' E 121°30'0 0.0
2015-May-19 16:30N 37°39' E 121°30'0 0.0
2015-May-19 15:30N 37°39' E 121°30'0 0.0
2015-May-19 14:24N 37°39' E 121°30'0 0.0
2015-May-19 13:30N 37°39' E 121°30'0 0.0
2015-May-19 12:18N 37°39' E 121°30'0 0.0
2015-May-19 11:18N 37°39' E 121°30'0 0.0
2015-May-19 10:30N 37°39' E 121°30'0 0.0
2015-May-19 09:30N 37°39' E 121°30'0 0.0
2015-May-19 08:33N 37°39' E 121°30'0 0.0
2015-May-19 07:30N 37°39' E 121°30'6 6.1
2015-May-19 06:33N 37°40' E 121°38'10 9.3
2015-May-19 05:31N 37°39' E 121°50'10 9.3
2015-May-19 04:27N 37°39' E 122°02'8 9.0
2015-May-19 03:33N 37°38' E 122°12'9 8.9
2015-May-19 02:33N 37°38' E 122°24'9 9.3
2015-May-19 01:33N 37°38' E 122°35'10 9.8
2015-May-19 00:33N 37°39' E 122°48'43 9.7
2015-May-18 20:07N 37°07' E 123°24'9 9.6
2015-May-18 19:07N 36°58' E 123°29'5 9.3
2015-May-18 18:33N 36°53' E 123°32'  

Dump ship's entire track history